createdAt,value
2022-08-26T00:01:17.952Z,19.86
2022-08-26T00:03:51.704Z,19.86
2022-08-26T00:06:20.785Z,19.82
2022-08-26T00:08:47.891Z,19.75
2022-08-26T00:11:14.895Z,19.74
2022-08-26T00:13:53.162Z,19.72
2022-08-26T00:16:20.257Z,19.65
2022-08-26T00:18:47.160Z,19.59
2022-08-26T00:21:14.032Z,19.62
2022-08-26T00:23:40.876Z,19.64
2022-08-26T00:26:08.317Z,19.69
2022-08-26T00:28:35.390Z,19.63
2022-08-26T00:31:02.351Z,19.68
2022-08-26T00:33:30.167Z,19.70
2022-08-26T00:35:57.105Z,19.70
2022-08-26T00:38:24.021Z,19.69
2022-08-26T00:40:52.622Z,19.63
2022-08-26T00:43:19.773Z,19.66
2022-08-26T00:45:50.930Z,19.61
2022-08-26T00:48:19.633Z,19.53
2022-08-26T00:50:50.029Z,19.45
2022-08-26T00:53:17.329Z,19.47
2022-08-26T00:55:44.167Z,19.44
2022-08-26T00:58:11.012Z,19.40
2022-08-26T01:00:37.957Z,19.43
2022-08-26T01:03:05.234Z,19.46
2022-08-26T01:05:32.353Z,19.39
2022-08-26T01:07:59.252Z,19.44
2022-08-26T01:10:28.056Z,19.46
2022-08-26T01:13:12.990Z,19.48
2022-08-26T01:15:44.983Z,19.49
2022-08-26T01:18:12.713Z,19.52
2022-08-26T01:20:58.510Z,19.54
2022-08-26T01:23:38.214Z,19.48
2022-08-26T01:26:07.871Z,19.45
2022-08-26T01:28:50.669Z,19.45
2022-08-26T01:31:20.756Z,19.45
2022-08-26T01:33:51.083Z,19.38
2022-08-26T01:36:18.424Z,19.35
2022-08-26T01:38:47.662Z,19.32
2022-08-26T01:41:19.610Z,19.33
2022-08-26T01:43:50.222Z,19.36
2022-08-26T01:46:17.293Z,19.33
2022-08-26T01:48:45.615Z,19.32
2022-08-26T01:51:15.094Z,19.26
2022-08-26T01:53:42.296Z,19.18
2022-08-26T01:56:14.654Z,19.12
2022-08-26T01:58:46.541Z,19.06
2022-08-26T02:01:13.499Z,18.97
2022-08-26T02:03:48.643Z,18.89
2022-08-26T02:06:15.521Z,18.82
2022-08-26T02:08:45.491Z,18.78
2022-08-26T02:11:12.525Z,18.76
2022-08-26T02:14:00.761Z,18.72
2022-08-26T02:16:29.229Z,18.70
2022-08-26T02:18:56.581Z,18.68
2022-08-26T02:21:24.952Z,18.64
2022-08-26T02:23:52.070Z,18.55
2022-08-26T02:26:21.110Z,18.51
2022-08-26T02:29:02.725Z,18.44
2022-08-26T02:31:29.689Z,18.38
2022-08-26T02:34:06.436Z,18.34
2022-08-26T02:36:33.655Z,18.31
2022-08-26T02:39:01.461Z,18.32
2022-08-26T02:41:28.297Z,18.31
2022-08-26T02:43:55.145Z,18.30
2022-08-26T02:46:28.040Z,18.32
2022-08-26T02:48:57.516Z,18.27
2022-08-26T02:51:25.129Z,18.25
2022-08-26T02:53:51.974Z,18.27
2022-08-26T02:56:19.264Z,18.24
2022-08-26T02:58:46.243Z,18.25
2022-08-26T03:01:23.882Z,18.22
2022-08-26T03:03:50.844Z,18.22
2022-08-26T03:06:18.336Z,18.20
2022-08-26T03:08:46.595Z,18.20
2022-08-26T03:11:14.064Z,18.15
2022-08-26T03:13:42.165Z,18.12
2022-08-26T03:16:09.067Z,18.17
2022-08-26T03:18:36.283Z,18.16
2022-08-26T03:21:07.653Z,18.16
2022-08-26T03:23:34.625Z,18.14
2022-08-26T03:26:01.817Z,18.12
2022-08-26T03:28:28.832Z,18.09
2022-08-26T03:30:55.969Z,18.05
2022-08-26T03:33:23.354Z,17.98
2022-08-26T03:35:50.920Z,17.92
2022-08-26T03:38:18.753Z,17.92
2022-08-26T03:40:45.927Z,17.92
2022-08-26T03:43:13.503Z,17.87
2022-08-26T03:45:40.382Z,17.88
2022-08-26T03:48:07.680Z,17.88
2022-08-26T03:50:35.700Z,17.86
2022-08-26T03:53:03.910Z,17.85
2022-08-26T03:55:32.114Z,17.86
2022-08-26T03:57:59.181Z,17.85
2022-08-26T04:00:26.146Z,17.86
2022-08-26T04:02:53.021Z,17.81
2022-08-26T04:05:21.534Z,17.84
2022-08-26T04:07:49.917Z,17.85
2022-08-26T04:10:20.232Z,17.78
2022-08-26T04:12:47.525Z,17.74
2022-08-26T04:15:15.274Z,17.71
2022-08-26T04:17:43.240Z,17.71
2022-08-26T04:20:10.706Z,17.69
2022-08-26T04:22:37.621Z,17.68
2022-08-26T04:25:04.676Z,17.68
2022-08-26T04:27:33.727Z,17.69
2022-08-26T04:30:00.704Z,17.73
2022-08-26T04:32:27.547Z,17.74
2022-08-26T04:34:54.421Z,17.74
2022-08-26T04:37:22.097Z,17.77
2022-08-26T04:39:53.297Z,17.80
2022-08-26T04:42:25.941Z,17.86
2022-08-26T04:44:53.074Z,17.87
2022-08-26T04:47:19.999Z,17.89
2022-08-26T04:49:46.867Z,17.92
2022-08-26T04:52:13.692Z,17.96
2022-08-26T04:54:42.004Z,18.03
2022-08-26T04:57:08.959Z,18.09
2022-08-26T04:59:39.184Z,18.16
2022-08-26T05:02:06.873Z,18.23
2022-08-26T05:04:34.031Z,18.31
2022-08-26T05:07:02.747Z,18.39
2022-08-26T05:09:30.416Z,18.52
2022-08-26T05:11:57.640Z,18.61
2022-08-26T05:14:24.490Z,18.75
2022-08-26T05:16:51.641Z,18.84
2022-08-26T05:19:18.853Z,18.92
2022-08-26T05:21:46.347Z,19.02
2022-08-26T05:24:14.112Z,19.08
2022-08-26T05:26:41.153Z,19.17
2022-08-26T05:29:08.001Z,19.36
2022-08-26T05:31:35.586Z,19.50
2022-08-26T05:34:03.928Z,19.63
2022-08-26T05:36:32.023Z,19.83
2022-08-26T05:39:00.467Z,20.02
2022-08-26T05:41:34.447Z,20.19
2022-08-26T05:44:04.468Z,20.23
2022-08-26T05:46:31.493Z,20.49
2022-08-26T05:48:58.639Z,20.64
2022-08-26T05:51:26.216Z,20.72
2022-08-26T05:53:54.447Z,20.74
2022-08-26T05:56:22.315Z,20.92
2022-08-26T05:58:49.141Z,21.01
2022-08-26T06:01:17.903Z,21.26
2022-08-26T06:03:46.348Z,21.59
2022-08-26T06:06:28.079Z,21.89
2022-08-26T06:08:56.929Z,21.88
2022-08-26T06:11:24.168Z,22.17
2022-08-26T06:13:51.773Z,22.30
2022-08-26T06:16:19.839Z,22.34
2022-08-26T06:18:47.419Z,22.67
2022-08-26T06:21:23.659Z,22.95
2022-08-26T06:23:51.513Z,23.30
2022-08-26T06:26:18.323Z,23.57
2022-08-26T06:28:45.351Z,23.74
2022-08-26T06:31:13.206Z,24.03
2022-08-26T06:33:40.106Z,24.35
2022-08-26T06:36:07.123Z,24.22
2022-08-26T06:38:34.037Z,24.63
2022-08-26T06:41:03.365Z,24.76
2022-08-26T06:43:30.208Z,24.90
2022-08-26T06:46:00.987Z,25.03
2022-08-26T06:48:28.089Z,25.17
2022-08-26T06:51:08.810Z,25.35
2022-08-26T06:53:36.731Z,25.41
2022-08-26T06:56:04.687Z,25.56
2022-08-26T06:58:31.895Z,25.45
2022-08-26T07:01:03.783Z,25.37
2022-08-26T07:03:39.801Z,25.36
2022-08-26T07:06:07.002Z,25.73
2022-08-26T07:08:34.212Z,25.97
2022-08-26T07:11:04.465Z,26.28
2022-08-26T07:13:31.833Z,26.54
2022-08-26T07:15:58.728Z,26.66
2022-08-26T07:18:30.125Z,26.86
2022-08-26T07:20:56.980Z,27.16
2022-08-26T07:23:23.939Z,27.47
2022-08-26T07:25:51.338Z,27.56
2022-08-26T07:28:18.430Z,27.69
2022-08-26T07:30:46.358Z,27.83
2022-08-26T07:33:13.212Z,28.15
2022-08-26T07:35:40.171Z,28.56
2022-08-26T07:38:07.191Z,28.43
2022-08-26T07:40:34.252Z,28.74
2022-08-26T07:43:01.154Z,28.89
2022-08-26T07:45:28.128Z,28.93
2022-08-26T07:47:55.999Z,29.21
2022-08-26T07:50:22.909Z,29.12
2022-08-26T07:53:10.617Z,29.42
2022-08-26T07:55:38.269Z,29.31
2022-08-26T07:58:05.707Z,29.33
2022-08-26T08:00:33.500Z,29.56
2022-08-26T08:03:02.105Z,29.71
2022-08-26T08:05:33.698Z,29.78
2022-08-26T08:08:26.352Z,29.78
2022-08-26T08:10:50.891Z,29.71
2022-08-26T08:13:17.839Z,29.33
2022-08-26T08:15:46.599Z,29.08
2022-08-26T08:18:17.277Z,28.90
2022-08-26T08:20:47.619Z,28.93
2022-08-26T08:23:30.992Z,29.13
2022-08-26T08:26:04.766Z,29.65
2022-08-26T08:28:31.821Z,30.00
2022-08-26T08:30:59.053Z,30.32
2022-08-26T08:33:26.471Z,30.41
2022-08-26T08:35:53.359Z,30.49
2022-08-26T08:38:20.186Z,30.76
2022-08-26T08:40:47.107Z,31.00
2022-08-26T08:43:46.543Z,30.83
2022-08-26T08:46:16.280Z,30.61
2022-08-26T08:48:46.382Z,30.47
2022-08-26T08:51:19.452Z,30.31
2022-08-26T08:53:48.060Z,30.54
2022-08-26T08:56:37.354Z,30.59
2022-08-26T08:59:04.248Z,30.94
2022-08-26T09:01:35.212Z,31.22
2022-08-26T09:04:24.285Z,31.56
2022-08-26T09:06:55.318Z,31.69
2022-08-26T09:09:28.164Z,31.87
2022-08-26T09:11:55.480Z,31.78
2022-08-26T09:14:22.294Z,32.05
2022-08-26T09:17:01.469Z,32.39
2022-08-26T09:19:34.732Z,32.36
2022-08-26T09:22:02.899Z,32.50
2022-08-26T09:24:36.347Z,32.44
2022-08-26T09:27:06.444Z,32.11
2022-08-26T09:29:41.314Z,31.59
2022-08-26T09:32:18.884Z,32.26
2022-08-26T09:34:53.908Z,32.21
2022-08-26T09:37:36.127Z,32.65
2022-08-26T09:40:21.731Z,32.99
2022-08-26T09:43:05.160Z,33.46
2022-08-26T09:45:33.728Z,33.55
2022-08-26T09:48:01.752Z,33.62
2022-08-26T09:50:33.494Z,34.09
2022-08-26T09:53:03.082Z,34.40
2022-08-26T09:55:37.593Z,34.57
2022-08-26T09:58:08.814Z,32.98
2022-08-26T10:00:38.416Z,32.79
2022-08-26T10:03:12.626Z,32.76
2022-08-26T10:05:56.216Z,31.56
2022-08-26T10:08:25.902Z,31.52
2022-08-26T10:10:54.141Z,30.78
2022-08-26T10:13:27.987Z,30.79
2022-08-26T10:16:02.141Z,30.79
2022-08-26T10:18:34.301Z,30.39
2022-08-26T10:21:01.612Z,30.17
2022-08-26T10:23:30.827Z,30.56
2022-08-26T10:26:05.271Z,30.55
2022-08-26T10:28:49.358Z,30.83
2022-08-26T10:31:16.192Z,31.15
2022-08-26T10:33:43.072Z,31.53
2022-08-26T10:36:15.352Z,32.23
2022-08-26T10:38:47.209Z,32.68
2022-08-26T10:41:16.893Z,31.95
2022-08-26T10:43:51.241Z,31.73
2022-08-26T10:46:22.439Z,31.49
2022-08-26T10:48:59.991Z,31.16
2022-08-26T10:51:33.125Z,31.54
2022-08-26T10:54:04.535Z,31.84
2022-08-26T10:56:47.835Z,31.14
2022-08-26T10:59:29.387Z,31.33
2022-08-26T11:02:05.826Z,31.17
2022-08-26T11:04:34.990Z,31.15
2022-08-26T11:07:21.028Z,31.44
2022-08-26T11:09:48.357Z,31.46
2022-08-26T11:12:34.948Z,31.51
2022-08-26T11:15:13.315Z,31.52
2022-08-26T11:17:46.386Z,31.35
2022-08-26T11:20:22.172Z,31.17
2022-08-26T11:22:51.533Z,30.79
2022-08-26T11:25:19.325Z,29.87
2022-08-26T11:27:48.897Z,29.91
2022-08-26T11:30:15.875Z,29.71
2022-08-26T11:32:45.421Z,29.80
2022-08-26T11:35:18.264Z,29.77
2022-08-26T11:37:47.905Z,29.67
2022-08-26T11:40:25.088Z,29.49
2022-08-26T11:42:58.096Z,29.60
2022-08-26T11:45:43.795Z,29.55
2022-08-26T11:48:26.024Z,29.47
2022-08-26T11:50:54.312Z,29.42
2022-08-26T11:53:22.383Z,28.64
2022-08-26T11:55:51.585Z,28.09
2022-08-26T11:58:21.180Z,28.07
2022-08-26T12:01:09.833Z,27.73
2022-08-26T12:03:46.980Z,27.35
2022-08-26T12:08:59.103Z,27.34
2022-08-26T12:11:28.408Z,27.33
2022-08-26T12:13:56.851Z,27.14
2022-08-26T12:16:25.636Z,27.13
2022-08-26T12:18:52.766Z,26.95
2022-08-26T12:21:21.320Z,26.96
2022-08-26T12:23:50.161Z,26.69
2022-08-26T12:26:43.304Z,26.88
2022-08-26T12:29:26.740Z,27.01
2022-08-26T12:32:27.704Z,27.38
2022-08-26T12:34:55.461Z,27.66
2022-08-26T12:37:22.448Z,27.94
2022-08-26T12:39:49.455Z,28.20
2022-08-26T12:42:19.171Z,28.45
2022-08-26T12:44:53.426Z,28.73
2022-08-26T12:47:41.897Z,28.89
2022-08-26T12:50:21.530Z,28.90
2022-08-26T12:52:55.879Z,29.20
2022-08-26T12:55:24.475Z,29.54
2022-08-26T12:58:09.206Z,29.86
2022-08-26T13:00:37.958Z,29.80
2022-08-26T13:03:25.928Z,30.03
2022-08-26T13:05:52.833Z,30.05
2022-08-26T13:08:27.065Z,30.31
2022-08-26T13:11:23.199Z,30.41
2022-08-26T13:13:51.302Z,30.56
2022-08-26T13:16:21.854Z,30.19
2022-08-26T13:18:49.962Z,30.32
2022-08-26T13:21:21.949Z,30.30
2022-08-26T13:23:48.939Z,30.13
2022-08-26T13:26:16.518Z,30.05
2022-08-26T13:28:43.678Z,30.06
2022-08-26T13:31:11.286Z,30.28
2022-08-26T13:33:38.773Z,30.33
2022-08-26T13:36:06.607Z,30.43
2022-08-26T13:38:34.159Z,30.40
2022-08-26T13:41:01.795Z,30.51
2022-08-26T13:43:28.961Z,30.41
2022-08-26T13:45:55.794Z,30.23
2022-08-26T13:48:23.676Z,29.94
2022-08-26T13:50:50.556Z,29.80
2022-08-26T13:53:17.532Z,29.97
2022-08-26T13:55:44.363Z,30.17
2022-08-26T13:58:11.429Z,30.26
2022-08-26T14:00:38.403Z,30.28
2022-08-26T14:03:08.158Z,30.49
2022-08-26T14:05:37.058Z,30.65
2022-08-26T14:08:07.079Z,30.75
2022-08-26T14:10:34.295Z,30.86
2022-08-26T14:13:01.169Z,30.60
2022-08-26T14:15:28.495Z,30.66
2022-08-26T14:17:55.965Z,30.68
2022-08-26T14:20:26.809Z,30.55
2022-08-26T14:25:40.694Z,30.00
2022-08-26T14:28:07.514Z,30.13
2022-08-26T14:30:34.587Z,30.29
2022-08-26T14:33:01.448Z,30.47
2022-08-26T14:35:29.608Z,30.61
2022-08-26T14:38:13.891Z,30.51
2022-08-26T14:40:40.886Z,30.38
2022-08-26T14:43:07.716Z,30.35
2022-08-26T14:45:37.173Z,30.31
2022-08-26T14:48:04.152Z,30.16
2022-08-26T14:50:30.979Z,30.04
2022-08-26T14:52:57.836Z,29.57
2022-08-26T14:55:25.073Z,29.40
2022-08-26T14:57:52.153Z,29.02
2022-08-26T15:00:19.005Z,28.37
2022-08-26T15:02:46.055Z,28.07
2022-08-26T15:05:13.132Z,27.81
2022-08-26T15:07:39.997Z,27.62
2022-08-26T15:10:07.671Z,27.42
2022-08-26T15:12:34.547Z,27.37
2022-08-26T15:15:01.452Z,27.30
2022-08-26T15:17:28.340Z,26.56
2022-08-26T15:19:55.173Z,25.45
2022-08-26T15:22:22.042Z,24.56
2022-08-26T15:24:51.842Z,24.08
2022-08-26T15:27:26.918Z,23.65
2022-08-26T15:29:53.832Z,23.28
2022-08-26T15:32:20.756Z,22.99
2022-08-26T15:34:47.628Z,22.83
2022-08-26T15:37:14.463Z,22.76
2022-08-26T15:39:41.458Z,22.69
2022-08-26T15:42:09.300Z,22.59
2022-08-26T15:44:36.163Z,22.60
2022-08-26T15:47:03.107Z,22.34
2022-08-26T15:49:29.972Z,22.44
2022-08-26T15:51:56.812Z,22.36
2022-08-26T15:54:24.058Z,22.38
2022-08-26T15:56:51.279Z,22.32
2022-08-26T15:59:18.764Z,22.31
2022-08-26T16:01:45.956Z,22.32
2022-08-26T16:04:12.843Z,22.33
2022-08-26T16:06:40.723Z,22.24
2022-08-26T16:09:08.344Z,22.10
2022-08-26T16:11:35.520Z,22.19
2022-08-26T16:14:03.005Z,22.30
2022-08-26T16:16:30.883Z,22.31
2022-08-26T16:18:57.741Z,22.33
2022-08-26T16:21:25.718Z,22.30
2022-08-26T16:23:52.574Z,22.45
2022-08-26T16:26:21.076Z,22.59
2022-08-26T16:28:48.043Z,22.58
2022-08-26T16:31:15.502Z,22.56
2022-08-26T16:33:42.438Z,22.61
2022-08-26T16:36:09.781Z,22.72
2022-08-26T16:38:37.011Z,22.72
2022-08-26T16:41:04.237Z,22.83
2022-08-26T16:43:31.289Z,22.84
2022-08-26T16:45:58.288Z,22.89
2022-08-26T16:48:25.306Z,22.88
2022-08-26T16:50:52.150Z,22.85
2022-08-26T16:53:19.266Z,22.69
2022-08-26T16:55:47.068Z,22.69
2022-08-26T16:58:14.384Z,22.66
2022-08-26T17:00:41.418Z,22.76
2022-08-26T17:03:08.750Z,22.77
2022-08-26T17:05:35.900Z,22.77
2022-08-26T17:08:03.587Z,22.93
2022-08-26T17:10:31.044Z,22.89
2022-08-26T17:12:57.999Z,22.77
2022-08-26T17:15:24.869Z,22.61
2022-08-26T17:17:51.921Z,22.82
2022-08-26T17:20:19.517Z,22.90
2022-08-26T17:22:48.345Z,22.89
2022-08-26T17:25:27.122Z,22.96
2022-08-26T17:27:54.163Z,22.94
2022-08-26T17:30:21.198Z,22.94
2022-08-26T17:32:48.104Z,22.94
2022-08-26T17:35:15.092Z,22.98
2022-08-26T17:37:42.300Z,22.91
2022-08-26T17:40:10.720Z,22.73
2022-08-26T17:42:38.726Z,22.79
2022-08-26T17:45:06.078Z,22.83
2022-08-26T17:47:33.044Z,22.85
2022-08-26T17:50:00.055Z,22.72
2022-08-26T17:52:27.343Z,22.71
2022-08-26T17:54:54.762Z,22.71
2022-08-26T17:57:53.854Z,22.62
2022-08-26T18:00:22.725Z,22.63
2022-08-26T18:02:49.535Z,22.40
2022-08-26T18:05:16.685Z,21.55
2022-08-26T18:07:44.294Z,21.29
2022-08-26T18:10:13.409Z,20.79
2022-08-26T18:12:40.520Z,20.54
2022-08-26T18:15:08.231Z,20.47
2022-08-26T18:17:35.103Z,20.41
2022-08-26T18:20:02.039Z,20.19
2022-08-26T18:22:28.909Z,20.08
2022-08-26T18:24:59.003Z,20.00
2022-08-26T18:27:26.470Z,19.91
2022-08-26T18:29:53.323Z,19.93
2022-08-26T18:32:20.239Z,19.92
2022-08-26T18:34:47.216Z,19.94
2022-08-26T18:37:14.078Z,19.95
2022-08-26T18:39:41.047Z,19.96
2022-08-26T18:42:08.046Z,19.97
2022-08-26T18:44:35.026Z,19.97
2022-08-26T18:47:01.966Z,19.97
2022-08-26T18:49:28.845Z,19.93
2022-08-26T18:51:55.678Z,19.92
2022-08-26T18:54:22.659Z,19.85
2022-08-26T18:56:49.693Z,19.79
2022-08-26T18:59:16.567Z,19.82
2022-08-26T19:01:44.585Z,19.84
2022-08-26T19:04:15.310Z,19.79
2022-08-26T19:06:43.156Z,19.79
2022-08-26T19:09:11.787Z,19.78
2022-08-26T19:11:42.896Z,19.73
2022-08-26T19:14:11.791Z,19.71
2022-08-26T19:16:40.724Z,19.66
2022-08-26T19:19:07.738Z,19.63
2022-08-26T19:21:35.692Z,19.66
2022-08-26T19:24:03.938Z,19.62
2022-08-26T19:26:31.437Z,19.49
2022-08-26T19:28:58.464Z,19.42
2022-08-26T19:31:25.573Z,19.50
2022-08-26T19:33:52.510Z,19.52
2022-08-26T19:36:21.167Z,19.54
2022-08-26T19:38:48.557Z,19.51
2022-08-26T19:41:17.318Z,19.51
2022-08-26T19:43:44.295Z,19.48
2022-08-26T19:46:14.740Z,19.43
2022-08-26T19:48:41.677Z,19.44
2022-08-26T19:51:11.521Z,19.42
2022-08-26T19:53:39.194Z,19.39
2022-08-26T19:56:08.302Z,19.36
2022-08-26T19:58:35.147Z,19.39
2022-08-26T20:01:02.244Z,19.35
2022-08-26T20:03:29.139Z,19.30
2022-08-26T20:05:56.200Z,19.33
2022-08-26T20:08:23.010Z,19.32
2022-08-26T20:10:50.516Z,19.35
2022-08-26T20:13:17.373Z,19.41
2022-08-26T20:15:44.412Z,19.37
2022-08-26T20:18:11.397Z,19.35
2022-08-26T20:20:38.345Z,19.40
2022-08-26T20:23:05.226Z,19.42
2022-08-26T20:25:32.812Z,19.40
2022-08-26T20:28:00.201Z,19.41
2022-08-26T20:30:27.067Z,19.44
2022-08-26T20:32:55.351Z,19.45
2022-08-26T20:35:22.286Z,19.47
2022-08-26T20:37:49.142Z,19.45
2022-08-26T20:40:17.052Z,19.48
2022-08-26T20:42:44.007Z,19.47
2022-08-26T20:45:10.955Z,19.52
2022-08-26T20:47:37.893Z,19.50
2022-08-26T20:50:05.121Z,19.52
2022-08-26T20:52:31.939Z,19.53
2022-08-26T20:54:59.994Z,19.57
2022-08-26T20:57:26.836Z,19.58
2022-08-26T20:59:53.702Z,19.58
2022-08-26T21:02:20.542Z,19.66
2022-08-26T21:04:47.492Z,19.68
2022-08-26T21:07:14.397Z,19.67
2022-08-26T21:09:41.412Z,19.65
2022-08-26T21:12:09.165Z,19.67
2022-08-26T21:14:36.030Z,19.70
2022-08-26T21:17:03.436Z,19.72
2022-08-26T21:19:30.394Z,19.72
2022-08-26T21:21:57.254Z,19.70
2022-08-26T21:24:24.112Z,19.71
2022-08-26T21:26:50.921Z,19.70
2022-08-26T21:29:17.754Z,19.70
2022-08-26T21:31:46.535Z,19.72
2022-08-26T21:34:17.738Z,19.71
2022-08-26T21:36:45.745Z,19.68
2022-08-26T21:39:12.722Z,19.62
2022-08-26T21:41:40.345Z,19.60
2022-08-26T21:44:07.179Z,19.61
2022-08-26T21:46:34.015Z,19.60
2022-08-26T21:49:02.283Z,19.59
2022-08-26T21:51:31.565Z,19.56
2022-08-26T21:53:59.045Z,19.53
2022-08-26T21:56:27.380Z,19.56
2022-08-26T21:58:54.781Z,19.51
2022-08-26T22:01:23.490Z,19.52
2022-08-26T22:03:51.110Z,19.52
2022-08-26T22:06:18.980Z,19.50
2022-08-26T22:08:45.889Z,19.50
2022-08-26T22:11:12.745Z,19.49
2022-08-26T22:13:41.031Z,19.47
2022-08-26T22:16:07.976Z,19.46
2022-08-26T22:18:35.549Z,19.44
2022-08-26T22:21:04.711Z,19.42
2022-08-26T22:23:31.942Z,19.43
2022-08-26T22:25:58.860Z,19.44
2022-08-26T22:28:25.780Z,19.45
2022-08-26T22:30:52.648Z,19.29
2022-08-26T22:33:19.703Z,19.33
2022-08-26T22:35:48.928Z,19.39
2022-08-26T22:38:16.313Z,19.38
2022-08-26T22:40:48.647Z,19.37
2022-08-26T22:43:15.834Z,19.34
2022-08-26T22:45:43.883Z,19.34
2022-08-26T22:48:12.133Z,19.36
2022-08-26T22:50:39.081Z,19.39
2022-08-26T22:53:06.064Z,19.37
2022-08-26T22:55:32.920Z,19.43
2022-08-26T22:57:59.916Z,19.43
2022-08-26T23:00:31.972Z,19.43
2022-08-26T23:02:59.832Z,19.41
2022-08-26T23:05:26.771Z,19.40
2022-08-26T23:07:53.790Z,19.33
2022-08-26T23:10:20.729Z,19.30
2022-08-26T23:12:47.564Z,19.24
2022-08-26T23:15:14.801Z,19.23
2022-08-26T23:17:43.203Z,19.21
2022-08-26T23:20:11.336Z,19.22
2022-08-26T23:22:38.229Z,19.22
2022-08-26T23:25:06.803Z,19.21
2022-08-26T23:27:36.127Z,19.27
2022-08-26T23:30:04.647Z,19.26
2022-08-26T23:32:31.458Z,19.29
2022-08-26T23:34:58.382Z,19.30
2022-08-26T23:37:27.010Z,19.30
2022-08-26T23:39:54.821Z,19.28
2022-08-26T23:42:21.742Z,19.25
2022-08-26T23:44:48.723Z,19.29
2022-08-26T23:47:16.654Z,19.30
2022-08-26T23:49:43.488Z,19.27
2022-08-26T23:52:10.395Z,19.21
2022-08-26T23:54:37.845Z,19.24
2022-08-26T23:57:04.948Z,19.26
2022-08-26T23:59:32.067Z,19.26
